sensor_id;sensor_type;location;lat;lon;timestamp;pressure;altitude;pressure_sealevel;temperature;humidity
24440;BME280;12618;54.386;18.394;2022-11-15T00:00:39;99949.86;;;6.70;100.00
24440;BME280;12618;54.386;18.394;2022-11-15T00:03:15;99945.03;;;6.71;100.00
24440;BME280;12618;54.386;18.394;2022-11-15T00:05:46;99938.09;;;6.68;100.00
24440;BME280;12618;54.386;18.394;2022-11-15T00:08:18;99935.03;;;6.69;100.00
24440;BME280;12618;54.386;18.394;2022-11-15T00:10:55;99934.61;;;6.68;100.00
24440;BME280;12618;54.386;18.394;2022-11-15T00:13:27;99934.20;;;6.67;100.00
24440;BME280;12618;54.386;18.394;2022-11-15T00:15:59;99922.48;;;6.64;100.00
24440;BME280;12618;54.386;18.394;2022-11-15T00:18:30;99930.77;;;6.65;100.00
24440;BME280;12618;54.386;18.394;2022-11-15T00:21:10;99926.41;;;6.64;100.00
24440;BME280;12618;54.386;18.394;2022-11-15T00:23:41;99924.61;;;6.66;100.00
24440;BME280;12618;54.386;18.394;2022-11-15T00:26:13;99914.61;;;6.64;100.00
24440;BME280;12618;54.386;18.394;2022-11-15T00:28:44;99924.20;;;6.65;100.00
24440;BME280;12618;54.386;18.394;2022-11-15T00:31:15;99914.23;;;6.63;100.00
24440;BME280;12618;54.386;18.394;2022-11-15T00:33:46;99917.39;;;6.59;100.00
24440;BME280;12618;54.386;18.394;2022-11-15T00:36:16;99922.22;;;6.58;100.00
24440;BME280;12618;54.386;18.394;2022-11-15T00:38:47;99918.73;;;6.57;100.00
24440;BME280;12618;54.386;18.394;2022-11-15T00:41:18;99920.45;;;6.58;100.00
24440;BME280;12618;54.386;18.394;2022-11-15T00:43:48;99924.80;;;6.60;100.00
24440;BME280;12618;54.386;18.394;2022-11-15T00:46:19;99915.63;;;6.60;100.00
24440;BME280;12618;54.386;18.394;2022-11-15T00:48:50;99913.71;;;6.65;100.00
24440;BME280;12618;54.386;18.394;2022-11-15T00:51:21;99913.19;;;6.68;100.00
24440;BME280;12618;54.386;18.394;2022-11-15T00:53:51;99916.63;;;6.70;100.00
24440;BME280;12618;54.386;18.394;2022-11-15T00:56:22;99916.18;;;6.71;100.00
24440;BME280;12618;54.386;18.394;2022-11-15T00:58:53;99913.47;;;6.74;100.00
24440;BME280;12618;54.386;18.394;2022-11-15T01:01:23;99904.78;;;6.72;100.00
24440;BME280;12618;54.386;18.394;2022-11-15T01:03:54;99906.17;;;6.69;100.00
24440;BME280;12618;54.386;18.394;2022-11-15T01:06:25;99902.66;;;6.70;100.00
24440;BME280;12618;54.386;18.394;2022-11-15T01:08:56;99900.03;;;6.70;100.00
24440;BME280;12618;54.386;18.394;2022-11-15T01:11:26;99893.44;;;6.71;100.00
24440;BME280;12618;54.386;18.394;2022-11-15T01:13:57;99891.75;;;6.69;100.00
24440;BME280;12618;54.386;18.394;2022-11-15T01:16:28;99890.11;;;6.65;100.00
24440;BME280;12618;54.386;18.394;2022-11-15T01:18:59;99884.45;;;6.64;100.00
24440;BME280;12618;54.386;18.394;2022-11-15T01:21:29;99886.70;;;6.63;100.00
24440;BME280;12618;54.386;18.394;2022-11-15T01:24:00;99885.88;;;6.61;100.00
24440;BME280;12618;54.386;18.394;2022-11-15T01:26:31;99881.53;;;6.60;100.00
24440;BME280;12618;54.386;18.394;2022-11-15T01:29:01;99874.20;;;6.56;100.00
24440;BME280;12618;54.386;18.394;2022-11-15T01:31:32;99870.72;;;6.55;100.00
24440;BME280;12618;54.386;18.394;2022-11-15T01:34:03;99858.66;;;6.50;100.00
24440;BME280;12618;54.386;18.394;2022-11-15T01:36:34;99858.20;;;6.50;100.00
24440;BME280;12618;54.386;18.394;2022-11-15T01:39:05;99850.75;;;6.51;100.00
24440;BME280;12618;54.386;18.394;2022-11-15T01:41:35;99860.72;;;6.53;100.00
24440;BME280;12618;54.386;18.394;2022-11-15T01:47:13;99844.91;;;6.56;100.00
24440;BME280;12618;54.386;18.394;2022-11-15T01:49:46;99838.80;;;6.56;100.00
24440;BME280;12618;54.386;18.394;2022-11-15T01:52:17;99837.98;;;6.54;100.00
24440;BME280;12618;54.386;18.394;2022-11-15T01:54:53;99833.71;;;6.51;100.00
24440;BME280;12618;54.386;18.394;2022-11-15T01:57:24;99828.14;;;6.47;100.00
24440;BME280;12618;54.386;18.394;2022-11-15T01:59:55;99825.59;;;6.44;100.00
24440;BME280;12618;54.386;18.394;2022-11-15T02:02:27;99823.47;;;6.42;100.00
24440;BME280;12618;54.386;18.394;2022-11-15T02:04:58;99823.50;;;6.41;100.00
24440;BME280;12618;54.386;18.394;2022-11-15T02:07:29;99826.41;;;6.46;100.00
24440;BME280;12618;54.386;18.394;2022-11-15T02:10:07;99819.41;;;6.47;100.00
24440;BME280;12618;54.386;18.394;2022-11-15T02:12:39;99814.20;;;6.45;100.00
24440;BME280;12618;54.386;18.394;2022-11-15T02:15:11;99816.91;;;6.42;100.00
24440;BME280;12618;54.386;18.394;2022-11-15T02:20:35;99799.46;;;6.41;100.00
24440;BME280;12618;54.386;18.394;2022-11-15T02:29:05;99784.67;;;6.40;100.00
24440;BME280;12618;54.386;18.394;2022-11-15T02:37:19;99790.44;;;6.37;100.00
24440;BME280;12618;54.386;18.394;2022-11-15T02:39:58;99794.91;;;6.33;100.00
24440;BME280;12618;54.386;18.394;2022-11-15T02:42:30;99788.84;;;6.31;100.00
24440;BME280;12618;54.386;18.394;2022-11-15T02:45:22;99788.44;;;6.30;100.00
24440;BME280;12618;54.386;18.394;2022-11-15T02:47:55;99780.64;;;6.29;100.00
24440;BME280;12618;54.386;18.394;2022-11-15T02:50:29;99785.44;;;6.29;100.00
24440;BME280;12618;54.386;18.394;2022-11-15T02:53:00;99781.39;;;6.32;100.00
24440;BME280;12618;54.386;18.394;2022-11-15T02:55:34;99776.64;;;6.30;100.00
24440;BME280;12618;54.386;18.394;2022-11-15T03:00:59;99773.64;;;6.29;100.00
24440;BME280;12618;54.386;18.394;2022-11-15T03:03:37;99774.63;;;6.25;100.00
24440;BME280;12618;54.386;18.394;2022-11-15T03:09:08;99768.07;;;6.25;100.00
24440;BME280;12618;54.386;18.394;2022-11-15T03:11:46;99766.35;;;6.24;100.00
24440;BME280;12618;54.386;18.394;2022-11-15T03:14:32;99758.57;;;6.21;100.00
24440;BME280;12618;54.386;18.394;2022-11-15T03:17:22;99753.44;;;6.18;100.00
24440;BME280;12618;54.386;18.394;2022-11-15T03:19:57;99748.32;;;6.13;100.00
24440;BME280;12618;54.386;18.394;2022-11-15T03:22:33;99757.95;;;6.13;100.00
24440;BME280;12618;54.386;18.394;2022-11-15T03:25:06;99757.05;;;6.14;100.00
24440;BME280;12618;54.386;18.394;2022-11-15T03:27:43;99748.36;;;6.12;100.00
24440;BME280;12618;54.386;18.394;2022-11-15T03:30:15;99748.44;;;6.09;100.00
24440;BME280;12618;54.386;18.394;2022-11-15T03:32:56;99748.97;;;6.07;100.00
24440;BME280;12618;54.386;18.394;2022-11-15T03:35:28;99751.96;;;6.08;100.00
24440;BME280;12618;54.386;18.394;2022-11-15T03:40:45;99737.67;;;6.05;100.00
24440;BME280;12618;54.386;18.394;2022-11-15T03:46:24;99728.84;;;5.93;100.00
24440;BME280;12618;54.386;18.394;2022-11-15T03:49:19;99737.69;;;5.89;100.00
24440;BME280;12618;54.386;18.394;2022-11-15T03:51:45;99736.08;;;5.83;100.00
24440;BME280;12618;54.386;18.394;2022-11-15T03:54:16;99742.17;;;5.83;100.00
24440;BME280;12618;54.386;18.394;2022-11-15T03:56:47;99748.73;;;5.83;100.00
24440;BME280;12618;54.386;18.394;2022-11-15T03:59:17;99749.14;;;5.84;100.00
24440;BME280;12618;54.386;18.394;2022-11-15T04:01:48;99739.86;;;5.88;100.00
24440;BME280;12618;54.386;18.394;2022-11-15T04:04:19;99735.52;;;5.86;100.00
24440;BME280;12618;54.386;18.394;2022-11-15T04:06:50;99745.02;;;5.92;100.00
24440;BME280;12618;54.386;18.394;2022-11-15T04:09:21;99735.81;;;5.94;100.00
24440;BME280;12618;54.386;18.394;2022-11-15T04:11:51;99742.77;;;5.95;100.00
24440;BME280;12618;54.386;18.394;2022-11-15T04:14:22;99738.92;;;5.92;100.00
24440;BME280;12618;54.386;18.394;2022-11-15T04:16:53;99730.61;;;5.92;100.00
24440;BME280;12618;54.386;18.394;2022-11-15T04:19:23;99734.98;;;5.92;100.00
24440;BME280;12618;54.386;18.394;2022-11-15T04:22:12;99734.09;;;5.93;100.00
24440;BME280;12618;54.386;18.394;2022-11-15T04:25:01;99730.65;;;5.91;100.00
24440;BME280;12618;54.386;18.394;2022-11-15T04:27:31;99734.16;;;5.90;100.00
24440;BME280;12618;54.386;18.394;2022-11-15T04:30:03;99731.14;;;5.89;100.00
24440;BME280;12618;54.386;18.394;2022-11-15T04:32:33;99731.55;;;5.90;100.00
24440;BME280;12618;54.386;18.394;2022-11-15T04:35:04;99724.59;;;5.89;100.00
24440;BME280;12618;54.386;18.394;2022-11-15T04:37:35;99728.92;;;5.90;100.00
24440;BME280;12618;54.386;18.394;2022-11-15T04:40:07;99717.96;;;5.92;100.00
24440;BME280;12618;54.386;18.394;2022-11-15T04:42:41;99723.57;;;5.94;100.00
24440;BME280;12618;54.386;18.394;2022-11-15T04:45:12;99729.67;;;5.95;100.00
24440;BME280;12618;54.386;18.394;2022-11-15T04:47:44;99719.60;;;5.96;100.00
24440;BME280;12618;54.386;18.394;2022-11-15T04:50:17;99712.12;;;5.97;100.00
24440;BME280;12618;54.386;18.394;2022-11-15T04:52:53;99716.45;;;5.98;100.00
24440;BME280;12618;54.386;18.394;2022-11-15T04:55:23;99717.55;;;5.91;100.00
24440;BME280;12618;54.386;18.394;2022-11-15T04:57:58;99716.73;;;5.89;100.00
24440;BME280;12618;54.386;18.394;2022-11-15T05:00:29;99708.92;;;5.85;100.00
24440;BME280;12618;54.386;18.394;2022-11-15T05:03:00;99712.80;;;5.89;100.00
24440;BME280;12618;54.386;18.394;2022-11-15T05:05:49;99709.32;;;5.88;100.00
24440;BME280;12618;54.386;18.394;2022-11-15T05:08:20;99698.14;;;5.81;100.00
24440;BME280;12618;54.386;18.394;2022-11-15T05:10:51;99705.40;;;5.86;100.00
24440;BME280;12618;54.386;18.394;2022-11-15T05:13:22;99702.89;;;5.83;100.00
24440;BME280;12618;54.386;18.394;2022-11-15T05:15:52;99702.48;;;5.82;100.00
24440;BME280;12618;54.386;18.394;2022-11-15T05:18:23;99703.80;;;5.82;100.00
24440;BME280;12618;54.386;18.394;2022-11-15T05:20:54;99706.82;;;5.83;100.00
24440;BME280;12618;54.386;18.394;2022-11-15T05:23:25;99701.99;;;5.84;100.00
24440;BME280;12618;54.386;18.394;2022-11-15T05:26:00;99714.97;;;5.89;100.00
24440;BME280;12618;54.386;18.394;2022-11-15T05:28:32;99715.83;;;5.90;100.00
24440;BME280;12618;54.386;18.394;2022-11-15T05:31:04;99716.65;;;5.92;100.00
24440;BME280;12618;54.386;18.394;2022-11-15T05:33:37;99708.92;;;5.85;100.00
24440;BME280;12618;54.386;18.394;2022-11-15T05:36:30;99715.42;;;5.89;100.00
24440;BME280;12618;54.386;18.394;2022-11-15T05:39:04;99713.98;;;5.93;100.00
24440;BME280;12618;54.386;18.394;2022-11-15T05:41:50;99714.85;;;5.94;100.00
24440;BME280;12618;54.386;18.394;2022-11-15T05:44:22;99706.88;;;5.97;100.00
24440;BME280;12618;54.386;18.394;2022-11-15T05:46:55;99708.71;;;5.95;100.00
24440;BME280;12618;54.386;18.394;2022-11-15T05:49:30;99714.73;;;5.97;100.00
24440;BME280;12618;54.386;18.394;2022-11-15T05:52:06;99719.03;;;5.99;100.00
24440;BME280;12618;54.386;18.394;2022-11-15T05:54:38;99709.45;;;5.98;100.00
24440;BME280;12618;54.386;18.394;2022-11-15T05:57:09;99712.04;;;6.00;100.00
24440;BME280;12618;54.386;18.394;2022-11-15T05:59:40;99712.78;;;6.05;100.00
24440;BME280;12618;54.386;18.394;2022-11-15T06:02:13;99708.84;;;6.05;100.00
24440;BME280;12618;54.386;18.394;2022-11-15T06:04:44;99712.78;;;6.05;100.00
24440;BME280;12618;54.386;18.394;2022-11-15T06:07:14;99713.64;;;6.05;100.00
24440;BME280;12618;54.386;18.394;2022-11-15T06:09:45;99717.91;;;6.08;100.00
24440;BME280;12618;54.386;18.394;2022-11-15T06:12:16;99721.34;;;6.10;100.00
24440;BME280;12618;54.386;18.394;2022-11-15T06:14:46;99717.00;;;6.09;100.00
24440;BME280;12618;54.386;18.394;2022-11-15T06:17:17;99721.05;;;6.06;100.00
24440;BME280;12618;54.386;18.394;2022-11-15T06:19:47;99716.30;;;6.04;100.00
24440;BME280;12618;54.386;18.394;2022-11-15T06:22:18;99714.98;;;6.04;100.00
24440;BME280;12618;54.386;18.394;2022-11-15T06:24:49;99719.33;;;6.05;100.00
24440;BME280;12618;54.386;18.394;2022-11-15T06:27:19;99713.59;;;6.07;100.00
24440;BME280;12618;54.386;18.394;2022-11-15T06:29:50;99716.22;;;6.07;100.00
24440;BME280;12618;54.386;18.394;2022-11-15T06:32:20;99713.41;;;6.13;100.00
24440;BME280;12618;54.386;18.394;2022-11-15T06:34:51;99725.60;;;6.14;100.00
24440;BME280;12618;54.386;18.394;2022-11-15T06:37:22;99725.60;;;6.14;100.00
24440;BME280;12618;54.386;18.394;2022-11-15T06:39:53;99720.32;;;6.15;100.00
24440;BME280;12618;54.386;18.394;2022-11-15T06:42:23;99719.42;;;6.16;100.00
24440;BME280;12618;54.386;18.394;2022-11-15T06:44:54;99716.39;;;6.15;100.00
24440;BME280;12618;54.386;18.394;2022-11-15T06:47:25;99711.52;;;6.18;100.00
24440;BME280;12618;54.386;18.394;2022-11-15T06:49:56;99727.13;;;6.21;100.00
24440;BME280;12618;54.386;18.394;2022-11-15T06:52:26;99717.46;;;6.23;100.00
24440;BME280;12618;54.386;18.394;2022-11-15T06:54:59;99709.10;;;6.25;100.00
24440;BME280;12618;54.386;18.394;2022-11-15T06:57:29;99720.41;;;6.27;100.00
24440;BME280;12618;54.386;18.394;2022-11-15T07:00:04;99726.47;;;6.29;100.00
24440;BME280;12618;54.386;18.394;2022-11-15T07:02:33;99716.44;;;6.29;100.00
24440;BME280;12618;54.386;18.394;2022-11-15T07:05:04;99718.69;;;6.26;100.00
24440;BME280;12618;54.386;18.394;2022-11-15T07:07:34;99722.58;;;6.28;100.00
24440;BME280;12618;54.386;18.394;2022-11-15T07:10:06;99723.03;;;6.27;100.00
24440;BME280;12618;54.386;18.394;2022-11-15T07:12:37;99720.41;;;6.27;100.00
24440;BME280;12618;54.386;18.394;2022-11-15T07:15:09;99715.58;;;6.28;100.00
24440;BME280;12618;54.386;18.394;2022-11-15T07:17:40;99722.38;;;6.34;100.00
24440;BME280;12618;54.386;18.394;2022-11-15T07:20:11;99718.81;;;6.36;100.00
24440;BME280;12618;54.386;18.394;2022-11-15T07:22:44;99717.70;;;6.43;100.00
24440;BME280;12618;54.386;18.394;2022-11-15T07:25:17;99719.63;;;6.38;100.00
24440;BME280;12618;54.386;18.394;2022-11-15T07:28:00;99726.63;;;6.38;100.00
24440;BME280;12618;54.386;18.394;2022-11-15T07:30:28;99730.11;;;6.38;100.00
24440;BME280;12618;54.386;18.394;2022-11-15T07:33:00;99726.47;;;6.42;100.00
24440;BME280;12618;54.386;18.394;2022-11-15T07:35:30;99718.52;;;6.45;100.00
24440;BME280;12618;54.386;18.394;2022-11-15T07:38:02;99716.72;;;6.47;100.00
24440;BME280;12618;54.386;18.394;2022-11-15T07:40:33;99714.09;;;6.47;100.00
24440;BME280;12618;54.386;18.394;2022-11-15T07:43:05;99717.62;;;6.46;100.00
24440;BME280;12618;54.386;18.394;2022-11-15T07:45:44;99720.33;;;6.43;100.00
24440;BME280;12618;54.386;18.394;2022-11-15T07:48:15;99725.44;;;6.48;100.00
24440;BME280;12618;54.386;18.394;2022-11-15T07:50:46;99721.47;;;6.49;100.00
24440;BME280;12618;54.386;18.394;2022-11-15T07:53:16;99722.37;;;6.48;100.00
24440;BME280;12618;54.386;18.394;2022-11-15T07:55:47;99713.56;;;6.51;100.00
24440;BME280;12618;54.386;18.394;2022-11-15T07:58:18;99720.97;;;6.51;100.00
24440;BME280;12618;54.386;18.394;2022-11-15T08:00:48;99717.37;;;6.54;100.00
24440;BME280;12618;54.386;18.394;2022-11-15T08:03:19;99720.03;;;6.52;100.00
24440;BME280;12618;54.386;18.394;2022-11-15T08:05:51;99721.71;;;6.55;100.00
24440;BME280;12618;54.386;18.394;2022-11-15T08:08:22;99715.52;;;6.57;100.00
24440;BME280;12618;54.386;18.394;2022-11-15T08:10:52;99717.23;;;6.58;100.00
24440;BME280;12618;54.386;18.394;2022-11-15T08:13:23;99721.66;;;6.56;100.00
24440;BME280;12618;54.386;18.394;2022-11-15T08:16:01;99724.38;;;6.53;100.00
24440;BME280;12618;54.386;18.394;2022-11-15T08:18:32;99723.97;;;6.52;100.00
24440;BME280;12618;54.386;18.394;2022-11-15T08:21:03;99729.21;;;6.52;100.00
24440;BME280;12618;54.386;18.394;2022-11-15T08:23:34;99728.84;;;6.51;100.00
24440;BME280;12618;54.386;18.394;2022-11-15T08:26:05;99727.12;;;6.50;100.00
24440;BME280;12618;54.386;18.394;2022-11-15T08:28:36;99724.50;;;6.50;100.00
24440;BME280;12618;54.386;18.394;2022-11-15T08:31:06;99725.23;;;6.54;100.00
24440;BME280;12618;54.386;18.394;2022-11-15T08:33:37;99719.86;;;6.58;100.00
24440;BME280;12618;54.386;18.394;2022-11-15T08:36:13;99725.19;;;6.55;100.00
24440;BME280;12618;54.386;18.394;2022-11-15T08:38:44;99730.48;;;6.54;100.00
24440;BME280;12618;54.386;18.394;2022-11-15T08:41:38;99724.33;;;6.55;100.00
24440;BME280;12618;54.386;18.394;2022-11-15T08:43:51;99732.23;;;6.53;100.00
24440;BME280;12618;54.386;18.394;2022-11-15T08:46:22;99727.61;;;6.48;100.00
24440;BME280;12618;54.386;18.394;2022-11-15T08:48:53;99720.65;;;6.47;100.00
24440;BME280;12618;54.386;18.394;2022-11-15T08:51:25;99723.64;;;6.50;100.00
24440;BME280;12618;54.386;18.394;2022-11-15T08:53:55;99720.56;;;6.50;100.00
24440;BME280;12618;54.386;18.394;2022-11-15T08:56:26;99710.57;;;6.48;100.00
24440;BME280;12618;54.386;18.394;2022-11-15T08:58:57;99718.44;;;6.48;100.00
24440;BME280;12618;54.386;18.394;2022-11-15T09:01:27;99712.70;;;6.50;100.00
24440;BME280;12618;54.386;18.394;2022-11-15T09:03:58;99710.98;;;6.49;100.00
24440;BME280;12618;54.386;18.394;2022-11-15T09:06:29;99711.80;;;6.51;100.00
24440;BME280;12618;54.386;18.394;2022-11-15T09:09:01;99716.96;;;6.53;100.00
24440;BME280;12618;54.386;18.394;2022-11-15T09:11:31;99715.11;;;6.56;100.00
24440;BME280;12618;54.386;18.394;2022-11-15T09:14:02;99712.17;;;6.52;100.00
24440;BME280;12618;54.386;18.394;2022-11-15T09:16:33;99710.48;;;6.51;100.00
24440;BME280;12618;54.386;18.394;2022-11-15T09:19:04;99719.25;;;6.50;100.00
24440;BME280;12618;54.386;18.394;2022-11-15T09:21:35;99721.88;;;6.50;100.00
24440;BME280;12618;54.386;18.394;2022-11-15T09:24:06;99720.97;;;6.51;100.00
24440;BME280;12618;54.386;18.394;2022-11-15T09:26:36;99725.28;;;6.52;100.00
24440;BME280;12618;54.386;18.394;2022-11-15T09:29:07;99721.80;;;6.52;100.00
24440;BME280;12618;54.386;18.394;2022-11-15T09:31:38;99712.98;;;6.54;100.00
24440;BME280;12618;54.386;18.394;2022-11-15T09:34:13;99715.07;;;6.58;100.00
24440;BME280;12618;54.386;18.394;2022-11-15T09:36:41;99716.30;;;6.61;100.00
24440;BME280;12618;54.386;18.394;2022-11-15T09:39:12;99708.27;;;6.66;100.00
24440;BME280;12618;54.386;18.394;2022-11-15T09:50:12;99701.12;;;6.71;100.00
24440;BME280;12618;54.386;18.394;2022-11-15T09:52:45;99702.02;;;6.70;100.00
24440;BME280;12618;54.386;18.394;2022-11-15T09:55:16;99701.61;;;6.69;100.00
24440;BME280;12618;54.386;18.394;2022-11-15T09:58:03;99700.30;;;6.69;100.00
24440;BME280;12618;54.386;18.394;2022-11-15T10:00:38;99700.50;;;6.76;100.00
24440;BME280;12618;54.386;18.394;2022-11-15T10:05:47;99694.84;;;6.75;100.00
24440;BME280;12618;54.386;18.394;2022-11-15T10:11:20;99681.59;;;6.79;100.00
24440;BME280;12618;54.386;18.394;2022-11-15T10:13:54;99684.17;;;6.81;100.00
24440;BME280;12618;54.386;18.394;2022-11-15T10:19:17;99676.20;;;6.84;100.00
24440;BME280;12618;54.386;18.394;2022-11-15T10:24:33;99671.05;;;6.81;100.00
24440;BME280;12618;54.386;18.394;2022-11-15T10:27:00;99670.43;;;6.86;100.00
24440;BME280;12618;54.386;18.394;2022-11-15T10:29:31;99673.36;;;6.90;100.00
24440;BME280;12618;54.386;18.394;2022-11-15T10:32:01;99668.13;;;6.90;100.00
24440;BME280;12618;54.386;18.394;2022-11-15T10:34:35;99672.15;;;6.87;100.00
24440;BME280;12618;54.386;18.394;2022-11-15T10:37:06;99663.47;;;6.85;100.00
24440;BME280;12618;54.386;18.394;2022-11-15T10:39:37;99661.78;;;6.84;100.00
24440;BME280;12618;54.386;18.394;2022-11-15T10:42:25;99658.53;;;6.76;100.00
24440;BME280;12618;54.386;18.394;2022-11-15T10:44:50;99665.48;;;6.64;100.00
24440;BME280;12618;54.386;18.394;2022-11-15T10:47:32;99661.36;;;6.56;100.00
24440;BME280;12618;54.386;18.394;2022-11-15T10:50:24;99658.65;;;6.60;100.00
24440;BME280;12618;54.386;18.394;2022-11-15T10:52:43;99662.09;;;6.62;100.00
24440;BME280;12618;54.386;18.394;2022-11-15T10:57:52;99669.73;;;6.68;100.00
24440;BME280;12618;54.386;18.394;2022-11-15T11:00:26;99674.48;;;6.70;100.00
24440;BME280;12618;54.386;18.394;2022-11-15T11:06:06;99673.36;;;6.77;100.00
24440;BME280;12618;54.386;18.394;2022-11-15T11:08:38;99665.00;;;6.79;100.00
24440;BME280;12618;54.386;18.394;2022-11-15T11:11:08;99667.63;;;6.79;100.00
24440;BME280;12618;54.386;18.394;2022-11-15T11:13:40;99662.38;;;6.79;100.00
24440;BME280;12618;54.386;18.394;2022-11-15T11:16:38;99660.25;;;6.77;100.00
24440;BME280;12618;54.386;18.394;2022-11-15T11:22:09;99656.72;;;6.78;100.00
24440;BME280;12618;54.386;18.394;2022-11-15T11:30:17;99648.85;;;6.78;100.00
24440;BME280;12618;54.386;18.394;2022-11-15T11:49:18;99638.86;;;6.89;100.00
24440;BME280;12618;54.386;18.394;2022-11-15T11:54:48;99627.68;;;6.84;100.00
24440;BME280;12618;54.386;18.394;2022-11-15T11:57:29;99629.28;;;6.75;100.00
24440;BME280;12618;54.386;18.394;2022-11-15T12:00:04;99630.21;;;6.74;100.00
24440;BME280;12618;54.386;18.394;2022-11-15T12:02:38;99631.90;;;6.75;100.00
24440;BME280;12618;54.386;18.394;2022-11-15T12:05:38;99628.50;;;6.73;100.00
24440;BME280;12618;54.386;18.394;2022-11-15T12:11:12;99624.84;;;6.77;100.00
24440;BME280;12618;54.386;18.394;2022-11-15T12:13:43;99613.45;;;6.78;100.00
24440;BME280;12618;54.386;18.394;2022-11-15T12:18:53;99615.05;;;6.95;100.00
24440;BME280;12618;54.386;18.394;2022-11-15T12:21:45;99612.80;;;6.96;100.00
24440;BME280;12618;54.386;18.394;2022-11-15T12:24:26;99624.11;;;6.98;100.00
24440;BME280;12618;54.386;18.394;2022-11-15T12:29:56;99623.78;;;7.07;100.00
24440;BME280;12618;54.386;18.394;2022-11-15T12:32:33;99613.28;;;7.07;100.00
24440;BME280;12618;54.386;18.394;2022-11-15T12:35:06;99615.00;;;7.08;100.00
24440;BME280;12618;54.386;18.394;2022-11-15T12:40:30;99626.53;;;7.04;100.00
24440;BME280;12618;54.386;18.394;2022-11-15T12:43:07;99625.45;;;7.10;100.00
24440;BME280;12618;54.386;18.394;2022-11-15T12:45:38;99620.20;;;7.10;100.00
24440;BME280;12618;54.386;18.394;2022-11-15T12:53:33;99619.34;;;7.09;100.00
24440;BME280;12618;54.386;18.394;2022-11-15T13:04:26;99624.03;;;7.13;100.00
24440;BME280;12618;54.386;18.394;2022-11-15T13:07:00;99619.70;;;7.12;100.00
24440;BME280;12618;54.386;18.394;2022-11-15T13:17:53;99602.26;;;6.98;100.00
24440;BME280;12618;54.386;18.394;2022-11-15T13:20:30;99600.45;;;7.00;100.00
24440;BME280;12618;54.386;18.394;2022-11-15T13:23:13;99594.34;;;6.99;100.00
24440;BME280;12618;54.386;18.394;2022-11-15T13:28:44;99595.80;;;6.83;100.00
24440;BME280;12618;54.386;18.394;2022-11-15T13:31:28;99589.65;;;6.84;100.00
24440;BME280;12618;54.386;18.394;2022-11-15T13:34:20;99593.17;;;6.83;100.00
24440;BME280;12618;54.386;18.394;2022-11-15T13:36:46;99585.81;;;6.81;100.00
24440;BME280;12618;54.386;18.394;2022-11-15T13:39:25;99589.79;;;6.79;100.00
24440;BME280;12618;54.386;18.394;2022-11-15T13:41:57;99587.77;;;6.74;100.00
24440;BME280;12618;54.386;18.394;2022-11-15T13:44:30;99590.47;;;6.73;100.00
24440;BME280;12618;54.386;18.394;2022-11-15T13:47:19;99586.94;;;6.74;100.00
24440;BME280;12618;54.386;18.394;2022-11-15T13:49:47;99594.00;;;6.72;100.00
24440;BME280;12618;54.386;18.394;2022-11-15T13:52:17;99587.48;;;6.70;100.00
24440;BME280;12618;54.386;18.394;2022-11-15T13:57:48;99594.19;;;6.66;100.00
24440;BME280;12618;54.386;18.394;2022-11-15T14:00:42;99585.31;;;6.70;100.00
24440;BME280;12618;54.386;18.394;2022-11-15T14:06:11;99589.30;;;6.68;100.00
24440;BME280;12618;54.386;18.394;2022-11-15T14:11:33;99583.20;;;6.68;100.00
24440;BME280;12618;54.386;18.394;2022-11-15T14:14:13;99585.91;;;6.65;100.00
24440;BME280;12618;54.386;18.394;2022-11-15T14:16:48;99582.52;;;6.63;100.00
24440;BME280;12618;54.386;18.394;2022-11-15T14:22:18;99569.50;;;6.60;100.00
24440;BME280;12618;54.386;18.394;2022-11-15T14:28:07;99572.72;;;6.54;100.00
24440;BME280;12618;54.386;18.394;2022-11-15T14:30:40;99565.47;;;6.49;100.00
24440;BME280;12618;54.386;18.394;2022-11-15T14:33:23;99569.00;;;6.48;100.00
24440;BME280;12618;54.386;18.394;2022-11-15T14:35:55;99575.56;;;6.48;100.00
24440;BME280;12618;54.386;18.394;2022-11-15T14:38:27;99575.34;;;6.41;100.00
24440;BME280;12618;54.386;18.394;2022-11-15T14:41:00;99569.50;;;6.33;100.00
24440;BME280;12618;54.386;18.394;2022-11-15T14:43:30;99576.22;;;6.29;100.00
24440;BME280;12618;54.386;18.394;2022-11-15T14:46:01;99572.42;;;6.24;100.00
24440;BME280;12618;54.386;18.394;2022-11-15T14:48:32;99563.75;;;6.22;100.00
24440;BME280;12618;54.386;18.394;2022-11-15T14:51:03;99568.98;;;6.22;100.00
24440;BME280;12618;54.386;18.394;2022-11-15T14:53:34;99572.52;;;6.21;100.00
24440;BME280;12618;54.386;18.394;2022-11-15T14:56:06;99575.18;;;6.19;100.00
24440;BME280;12618;54.386;18.394;2022-11-15T14:58:37;99575.26;;;6.18;100.00
24440;BME280;12618;54.386;18.394;2022-11-15T15:01:17;99575.39;;;6.13;100.00
24440;BME280;12618;54.386;18.394;2022-11-15T15:03:46;99574.63;;;6.10;100.00
24440;BME280;12618;54.386;18.394;2022-11-15T15:06:17;99574.34;;;6.06;100.00
24440;BME280;12618;54.386;18.394;2022-11-15T15:08:48;99576.23;;;6.01;100.00
24440;BME280;12618;54.386;18.394;2022-11-15T15:11:23;99575.00;;;5.98;100.00
24440;BME280;12618;54.386;18.394;2022-11-15T15:13:54;99571.53;;;5.97;100.00
24440;BME280;12618;54.386;18.394;2022-11-15T15:16:27;99574.14;;;5.97;100.00
24440;BME280;12618;54.386;18.394;2022-11-15T15:18:57;99572.38;;;5.98;100.00
24440;BME280;12618;54.386;18.394;2022-11-15T15:21:28;99567.15;;;5.98;100.00
24440;BME280;12618;54.386;18.394;2022-11-15T15:24:01;99566.37;;;5.96;100.00
24440;BME280;12618;54.386;18.394;2022-11-15T15:26:32;99566.99;;;5.89;100.00
24440;BME280;12618;54.386;18.394;2022-11-15T15:29:05;99572.81;;;5.84;100.00
24440;BME280;12618;54.386;18.394;2022-11-15T15:31:37;99577.67;;;5.81;100.00
24440;BME280;12618;54.386;18.394;2022-11-15T15:34:09;99580.79;;;5.79;100.00